createdAt,value
2019-04-28T13:25:50.018Z,7.45
2019-04-28T13:28:18.778Z,7.20
2019-04-28T13:30:47.582Z,7.35
2019-04-28T13:33:16.504Z,7.50
2019-04-28T13:35:45.279Z,7.33
2019-04-28T13:38:14.098Z,7.37
2019-04-28T13:40:43.323Z,8.15
2019-04-28T13:43:12.240Z,6.58
2019-04-28T13:45:40.969Z,7.20
2019-04-28T13:48:09.720Z,6.53
2019-04-28T13:50:39.247Z,6.43
2019-04-28T13:53:08.479Z,6.35
2019-04-28T13:55:42.078Z,6.25
2019-04-28T13:58:10.927Z,6.53
2019-04-28T14:00:41.342Z,6.30
2019-04-28T14:03:28.209Z,6.05
2019-04-28T14:06:27.273Z,5.87
2019-04-28T14:08:45.280Z,5.78
2019-04-28T14:11:14.023Z,5.70
2019-04-28T14:13:42.780Z,5.78
2019-04-28T14:16:11.519Z,5.75
2019-04-28T14:18:40.316Z,5.90
2019-04-28T14:21:09.126Z,5.40
2019-04-28T14:23:37.960Z,4.90
2019-04-28T14:26:07.106Z,5.37
2019-04-28T14:28:35.966Z,5.67
2019-04-28T14:31:04.749Z,4.97
2019-04-28T14:33:33.477Z,5.37
2019-04-28T14:36:03.838Z,4.87
2019-04-28T14:38:32.589Z,5.00
2019-04-28T14:41:01.920Z,4.83
2019-04-28T14:43:30.698Z,5.28
2019-04-28T14:45:59.519Z,4.90
2019-04-28T14:48:28.454Z,4.70
2019-04-28T14:50:57.157Z,5.33
2019-04-28T14:53:25.899Z,4.80
2019-04-28T14:55:54.734Z,4.40
2019-04-28T14:58:24.471Z,4.10
2019-04-28T15:03:25.671Z,4.70
2019-04-28T15:06:05.059Z,5.10
2019-04-28T15:08:51.615Z,4.30
2019-04-28T15:11:22.012Z,4.37
2019-04-28T15:13:50.816Z,5.25
2019-04-28T15:16:20.659Z,4.30
2019-04-28T15:18:49.425Z,4.40
2019-04-28T15:21:18.275Z,4.67
2019-04-28T15:23:47.043Z,4.23
2019-04-28T15:26:15.784Z,4.20
2019-04-28T15:28:44.558Z,4.35
2019-04-28T15:31:13.429Z,4.25
2019-04-28T15:33:42.183Z,4.30
2019-04-28T15:36:10.931Z,4.35
2019-04-28T15:38:39.720Z,4.10
2019-04-28T15:41:20.971Z,3.80
2019-04-28T15:43:38.871Z,4.15
2019-04-28T15:46:07.795Z,4.10
2019-04-28T15:48:36.614Z,4.40
2019-04-28T15:51:05.397Z,4.40
2019-04-28T15:53:35.772Z,3.60
2019-04-28T15:56:12.263Z,3.70
2019-04-28T15:58:41.082Z,3.50
2019-04-28T16:01:10.338Z,3.77
2019-04-28T16:03:39.100Z,3.47
2019-04-28T16:06:07.915Z,3.22
2019-04-28T16:08:36.674Z,3.95
2019-04-28T16:11:05.598Z,2.98
2019-04-28T16:13:34.966Z,3.40
2019-04-28T16:16:04.271Z,2.75
2019-04-28T16:18:33.231Z,3.42
2019-04-28T16:21:01.978Z,3.20
2019-04-28T16:23:30.735Z,3.20
2019-04-28T16:25:59.521Z,2.80
2019-04-28T16:28:28.351Z,2.67
2019-04-28T16:30:57.339Z,2.70
2019-04-28T16:33:26.091Z,2.80
2019-04-28T16:35:55.015Z,2.90
2019-04-28T16:38:23.773Z,3.00
2019-04-28T16:40:55.054Z,3.00
2019-04-28T16:43:24.851Z,2.98
2019-04-28T16:48:21.589Z,3.12
2019-04-28T16:50:50.510Z,2.80
2019-04-28T16:53:19.276Z,3.00
2019-04-28T16:55:49.661Z,3.27
2019-04-28T16:58:20.068Z,3.33
2019-04-28T17:00:50.474Z,3.52
2019-04-28T17:03:19.410Z,3.55
2019-04-28T17:05:48.154Z,4.07
2019-04-28T17:08:16.905Z,3.70
2019-04-28T17:10:45.746Z,3.50
2019-04-28T17:13:14.509Z,3.33
2019-04-28T17:15:43.404Z,3.40
2019-04-28T17:18:12.226Z,2.97
2019-04-28T17:20:40.931Z,3.42
2019-04-28T17:23:09.676Z,3.10
2019-04-28T17:25:38.556Z,3.80
2019-04-28T17:28:08.481Z,3.73
2019-04-28T17:30:37.501Z,3.17
2019-04-28T17:33:06.219Z,2.47
2019-04-28T17:35:34.978Z,3.10
2019-04-28T17:38:06.768Z,2.62
2019-04-28T17:40:35.003Z,2.60
2019-04-28T17:43:04.861Z,3.05
2019-04-28T17:48:03.301Z,2.67
2019-04-28T17:50:32.321Z,2.60
2019-04-28T17:53:01.157Z,2.40
2019-04-28T17:55:29.965Z,2.52
2019-04-28T17:57:58.794Z,2.83
2019-04-28T18:00:44.313Z,2.60
2019-04-28T18:03:14.749Z,2.62
2019-04-28T18:05:46.154Z,2.85
2019-04-28T18:08:21.210Z,2.80
2019-04-28T18:10:45.516Z,2.22
2019-04-28T18:13:14.297Z,2.90
2019-04-28T18:16:01.782Z,3.17
2019-04-28T18:18:40.655Z,2.70
2019-04-28T18:21:09.396Z,2.72
2019-04-28T18:23:38.225Z,2.52
2019-04-28T18:26:08.111Z,3.00
2019-04-28T18:31:12.639Z,2.72
2019-04-28T18:33:49.333Z,3.08
2019-04-28T18:36:25.651Z,2.67
2019-04-28T18:38:56.051Z,2.90
2019-04-28T18:41:38.513Z,2.98
2019-04-28T18:44:20.967Z,3.10
2019-04-28T18:46:49.724Z,3.12
2019-04-28T18:49:20.341Z,2.80
2019-04-28T18:51:49.059Z,2.90
2019-04-28T18:54:17.839Z,3.17
2019-04-28T18:56:46.669Z,2.95
2019-04-28T18:59:15.527Z,3.35
2019-04-28T19:01:45.953Z,3.37
2019-04-28T19:04:15.759Z,3.02
2019-04-28T19:06:44.510Z,2.95
2019-04-28T19:09:17.390Z,2.85
2019-04-28T19:11:47.850Z,2.72
2019-04-28T19:14:18.385Z,2.67
2019-04-28T19:17:01.063Z,3.08
2019-04-28T19:19:31.460Z,2.80
2019-04-28T19:22:00.210Z,3.12
2019-04-28T19:24:28.978Z,3.12
2019-04-28T19:26:57.718Z,3.22
2019-04-28T19:29:26.571Z,3.10
2019-04-28T19:31:55.336Z,3.17
2019-04-28T19:34:24.079Z,3.80
2019-04-28T19:36:52.837Z,2.70
2019-04-28T19:39:21.655Z,3.25
2019-04-28T19:41:50.418Z,2.92
2019-04-28T19:44:19.299Z,3.27
2019-04-28T19:46:48.058Z,2.90
2019-04-28T19:49:16.814Z,2.85
2019-04-28T19:51:45.605Z,2.60
2019-04-28T19:54:14.931Z,3.10
2019-04-28T19:56:45.391Z,2.92
2019-04-28T20:02:06.501Z,3.30
2019-04-28T20:04:35.247Z,2.90
2019-04-28T20:07:04.062Z,3.00
2019-04-28T20:09:33.440Z,2.90
2019-04-28T20:12:02.282Z,2.95
2019-04-28T20:14:32.072Z,2.75
2019-04-28T20:19:30.383Z,2.85
2019-04-28T20:21:59.150Z,2.95
2019-04-28T20:28:50.319Z,3.02
2019-04-28T20:38:34.232Z,3.00
2019-04-28T20:47:22.022Z,4.30
2019-04-28T20:49:52.115Z,2.85
2019-04-28T20:52:22.609Z,3.20
2019-04-28T20:55:23.708Z,2.85
2019-04-28T20:58:01.340Z,2.90
2019-04-28T21:00:44.937Z,3.00
2019-04-28T21:03:14.914Z,2.85
2019-04-28T21:05:49.689Z,2.90
2019-04-28T21:08:23.146Z,2.90
2019-04-28T21:11:02.018Z,2.85
2019-04-28T21:13:53.917Z,3.08
2019-04-28T21:16:22.785Z,2.65
2019-04-28T21:18:51.668Z,2.62
2019-04-28T21:21:20.419Z,3.03
2019-04-28T21:23:49.254Z,2.65
2019-04-28T21:26:18.020Z,2.80
2019-04-28T21:28:46.888Z,2.83
2019-04-28T21:31:15.642Z,2.72
2019-04-28T21:34:03.740Z,2.72
2019-04-28T21:36:32.488Z,2.70
2019-04-28T21:39:01.326Z,3.25
2019-04-28T21:41:30.142Z,3.08
2019-04-28T21:44:04.834Z,3.00
2019-04-28T21:46:46.358Z,3.08
2019-04-28T21:49:25.767Z,2.92
2019-04-28T21:51:54.583Z,2.90
2019-04-28T21:54:23.324Z,2.80
2019-04-28T21:56:52.279Z,3.25
2019-04-28T21:59:21.117Z,3.00
2019-04-28T22:01:50.148Z,3.02
2019-04-28T22:04:19.028Z,2.72
2019-04-28T22:06:47.736Z,3.12
2019-04-28T22:09:17.463Z,3.00
2019-04-28T22:11:46.387Z,3.20
2019-04-28T22:14:15.145Z,3.05
2019-04-28T22:16:44.097Z,2.72
2019-04-28T22:19:12.984Z,3.17
2019-04-28T22:21:41.786Z,3.25
2019-04-28T22:24:20.905Z,3.08
2019-04-28T22:26:54.309Z,2.85
2019-04-28T22:29:23.060Z,3.30
2019-04-28T22:31:53.167Z,2.90
2019-04-28T22:34:22.098Z,3.00
2019-04-28T22:36:50.895Z,3.30
2019-04-28T22:39:19.874Z,3.22
2019-04-28T22:41:48.766Z,3.23
2019-04-28T22:44:17.622Z,3.50
2019-04-28T22:46:48.377Z,3.08
2019-04-28T22:49:17.360Z,2.95
2019-04-28T22:51:46.240Z,2.95
2019-04-28T22:54:19.433Z,3.05
2019-04-28T22:56:49.833Z,3.20
2019-04-28T22:59:20.225Z,3.27
2019-04-28T23:01:53.352Z,3.47
2019-04-28T23:04:40.030Z,3.27
2019-04-28T23:07:08.971Z,3.10
2019-04-28T23:09:37.727Z,3.57
2019-04-28T23:12:06.585Z,3.67
2019-04-28T23:14:35.342Z,3.83
2019-04-28T23:17:05.667Z,3.27
2019-04-28T23:19:36.188Z,3.27
2019-04-28T23:22:11.609Z,3.33
2019-04-28T23:24:40.151Z,3.12
2019-04-28T23:27:08.887Z,3.47
2019-04-28T23:29:37.790Z,3.30
2019-04-28T23:32:07.006Z,3.03
2019-04-28T23:34:35.758Z,3.45
2019-04-28T23:37:04.531Z,3.25
2019-04-28T23:39:33.290Z,3.30
2019-04-28T23:42:04.917Z,3.30
2019-04-28T23:44:35.329Z,3.58
2019-04-28T23:47:05.709Z,3.20
2019-04-28T23:49:34.523Z,2.85
2019-04-28T23:52:04.910Z,3.22
2019-04-28T23:54:35.223Z,3.15
2019-04-28T23:57:07.310Z,3.00
2019-04-28T23:59:34.434Z,3.40
